Terminal Aerodrome Forecast
Issued by NWS

Home | Current Version | Previous Version | Graphics & Text | Print | Product List | Glossary On
Versions: 1 2 3 4 5 6 7 8 9 10 11 12 13 14 15 16 17 18 19 20 21
000
FTUS43 KBIS 291400 AAB
TAFMOT
TAF AMD
KMOT 291402Z 2914/3012 07009KT P6SM OVC012
     FM291800 10012KT P6SM SCT007 BKN020
     FM300200 14010KT P6SM SCT007 OVC012=

USA.gov is the U.S. government's official web portal to all federal, state and local government web resources and services.